FMNNFMMI

Guest
Details From FMNN - FASCENE
To FMMI - IVATO
Flight Number -
Tags generated
Created
Modified
Stats Distance 333 nm / 617 km
Max Altitude 0 ft / 0 m
Waypoints 2
Social Downloads 1
Likes 0
Share

Download

Looking for another format? Having issues loading an existing format? Contact us
Advertisement - Login to hide

Notes

Basic altitude profile: - Ascent Rate: 2500ft/min - Ascent Speed: 250kts - Cruise Altitude: 35000ft - Cruise Speed: 420kts - Descent Rate: 1500ft/min - Descent Speed: 250kts Options: - Use NATs: no - Use PACOTS: no - Use low airways: no - Use high airways: no

Route

FMNN FMMI

ID Type Via Altitude (ft/m) Position (lat/lon) Dist (leg/tot) Name
O FMNN APT - 0 / 0 -13.31207 / 48.31482 - / 0 nm FASCENE
O FMMI APT - 0 / 0 -18.79695 / 47.47881 332 / 332 nm IVATO

Altitude Profile

Advertisement - Login to hide

Weather


0- 5 10 15 20 25 30 35+ Temperature / °C

Clouds and Precipitation
Forecast for 2021-03-22 12:00 UTC. Updated 2 months ago

Ground ~20,000 ft ~40,000 ft Winds

FMNN

Details ICAO FMNN (NOS)
Name Nosy-Be Fascene
Region Comoros, Mayotte, Réunion and Madagascar
Timezone Indian/Antananarivo (UTC+3.0)
Stats Elevation 35 ft / 11 m (AMSL)
Location -13.312200° 48.314700°
Runways 1
Magnetic Variation 9.507° W

METAR

FMNN 160700Z 17002KT 9999 FEW020 30/// Q1014

Decode

TAF

TAF FMNN 160500Z 1606/1706 15005KT 9999 SCT020 BECMG 1610/1612 26010KT BECMG 1617/1620 06004KT

Decode

Departure Runways

ID Width Length Bearing (true/mag) Surface Threshold Overrun Markings Lighting
05 148 ft / 45 m 7,323 ft / 2,232 m 42.93° / 52.44° ASPHALT 2,306 ft / 703 m 0 ft / 0 m APP EDGE THRESHOLD
23 148 ft / 45 m 7,323 ft / 2,232 m 222.93° / 232.43° ASPHALT 0 ft / 0 m 0 ft / 0 m APP EDGE THRESHOLD

FMMI

Details ICAO FMMI (TNR)
Name Antananarivo Ivato Intl
Region Comoros, Mayotte, Réunion and Madagascar
Timezone Indian/Antananarivo (UTC+3.0)
Stats Elevation 4,198 ft / 1,280 m (AMSL)
Location -18.796900° 47.478800°
Runways 1
Magnetic Variation 15.255° W

METAR

FMMI 160800Z 11008KT 090V160 9999 SCT017 BKN020 21/13 Q1023 NOSIG

Decode

TAF

TAF FMMI 160500Z 1606/1712 15004KT 9999 FEW017 BKN020 BECMG 1608/1610 09010KT BECMG 1617/1619 00000KT PROB30 TEMPO 1701/1705 0800 FG BKN005

Decode

Destination Runways

ID Width Length Bearing (true/mag) Surface Threshold Overrun Markings Lighting
11 148 ft / 45 m 10,157 ft / 3,096 m 98.96° / 114.22° ASPHALT 0 ft / 0 m 194 ft / 59 m PREC-APP EDGE THRESHOLD ALSF-I REIL-OMNI
29 148 ft / 45 m 10,157 ft / 3,096 m 278.95° / 294.21° ASPHALT 0 ft / 0 m 200 ft / 61 m PREC-APP EDGE THRESHOLD REIL-OMNI

Approach Navaids

Runway Type Ident Frequency Range Bearing (true/mag) Slope Elevation
11 MM MM - - 98.91° / 114.17 ° - 4,198 ft / 1,280 m (AMSL)
11 LOC-ILS IO 109.50 MHz 18 nm / 33 km 98.89° / 114.14 ° - 4,125 ft / 1,257 m (AMSL)
11 GS IO 109.50 MHz 10 nm / 19 km 99.82° / 115.08 ° 3.00° 4,198 ft / 1,280 m (AMSL)
11 OM OM - - 98.91° / 114.17 ° - 4,198 ft / 1,280 m (AMSL)

Popular Alternatives